Terminal Aerodrome Forecast
Issued by NWS

Home | Current Version | Previous Version | Text Only | Print | Product List | Glossary On
Versions: 1 2 3 4 5 6 7 8 9 10 11 12 13 14 15 16 17 18 19 20 21 22 23 24 25 26 27 28
000
FTUS45 KTWC 212300
TAFOLS
TAF
KOLS 212323Z 2200/2224 31004KT P6SM FEW080 SCT250
     FM220400 VRB03KT P6SM FEW250
     FM221800 28005KT P6SM FEW090=

USA.gov is the U.S. government's official web portal to all federal, state and local government web resources and services.